createdAt,value
2022-09-23T00:01:26.637Z,7.35
2022-09-23T00:03:54.793Z,7.39
2022-09-23T00:06:24.408Z,7.33
2022-09-23T00:08:53.711Z,7.38
2022-09-23T00:11:24.250Z,7.33
2022-09-23T00:13:54.277Z,7.38
2022-09-23T00:16:25.677Z,7.36
2022-09-23T00:18:53.512Z,7.31
2022-09-23T00:21:22.827Z,7.32
2022-09-23T00:23:51.665Z,7.37
2022-09-23T00:26:23.017Z,7.41
2022-09-23T00:28:51.648Z,7.39
2022-09-23T00:31:21.673Z,7.42
2022-09-23T00:33:54.800Z,7.40
2022-09-23T00:36:23.018Z,7.39
2022-09-23T00:38:50.904Z,7.46
2022-09-23T00:41:20.121Z,7.40
2022-09-23T00:43:50.022Z,7.42
2022-09-23T00:46:21.529Z,7.44
2022-09-23T00:48:54.518Z,7.44
2022-09-23T00:51:25.751Z,7.45
2022-09-23T00:53:54.197Z,7.42
2022-09-23T00:56:24.557Z,7.39
2022-09-23T00:58:53.195Z,7.27
2022-09-23T01:01:21.894Z,7.42
2022-09-23T01:03:51.168Z,7.39
2022-09-23T01:06:19.143Z,7.23
2022-09-23T01:08:48.563Z,7.43
2022-09-23T01:11:31.965Z,7.37
2022-09-23T01:14:11.538Z,7.42
2022-09-23T01:16:45.055Z,7.46
2022-09-23T01:19:35.765Z,7.36
2022-09-23T01:22:11.589Z,7.48
2022-09-23T01:25:13.369Z,7.55
2022-09-23T01:28:08.737Z,7.52
2022-09-23T01:30:45.616Z,7.55
2022-09-23T01:33:21.309Z,7.58
2022-09-23T01:36:09.959Z,7.62
2022-09-23T01:38:44.804Z,7.66
2022-09-23T01:41:23.284Z,7.62
2022-09-23T01:43:57.126Z,7.51
2022-09-23T01:46:30.997Z,7.52
2022-09-23T01:49:07.781Z,7.47
2022-09-23T01:51:40.276Z,7.44
2022-09-23T01:54:15.726Z,7.49
2022-09-23T01:56:49.273Z,7.45
2022-09-23T01:59:22.675Z,7.43
2022-09-23T02:01:57.605Z,7.42
2022-09-23T02:04:31.343Z,7.49
2022-09-23T02:07:04.522Z,7.52
2022-09-23T02:09:37.603Z,7.51
2022-09-23T02:12:12.553Z,7.52
2022-09-23T02:14:46.522Z,7.54
2022-09-23T02:17:23.118Z,7.58
2022-09-23T02:19:56.316Z,7.58
2022-09-23T02:22:29.239Z,7.64
2022-09-23T02:24:58.170Z,7.54
2022-09-23T02:27:33.005Z,7.53
2022-09-23T02:30:08.874Z,7.45
2022-09-23T02:32:48.149Z,7.49
2022-09-23T02:35:22.580Z,7.42
2022-09-23T02:37:58.680Z,7.40
2022-09-23T02:40:35.577Z,7.34
2022-09-23T02:43:10.078Z,7.39
2022-09-23T02:45:39.198Z,7.30
2022-09-23T02:48:14.682Z,7.36
2022-09-23T02:50:42.630Z,7.44
2022-09-23T02:53:11.425Z,7.34
2022-09-23T02:55:41.348Z,7.40
2022-09-23T02:58:10.877Z,7.32
2022-09-23T03:00:50.046Z,7.46
2022-09-23T03:03:34.894Z,7.53
2022-09-23T03:06:15.133Z,7.43
2022-09-23T03:08:50.439Z,7.45
2022-09-23T03:11:19.163Z,7.50
2022-09-23T03:14:06.649Z,7.47
2022-09-23T03:16:41.080Z,7.46
2022-09-23T03:19:24.592Z,7.35
2022-09-23T03:22:00.721Z,7.35
2022-09-23T03:24:31.252Z,7.39
2022-09-23T03:27:03.024Z,7.43
2022-09-23T03:29:32.555Z,7.38
2022-09-23T03:32:01.530Z,7.38
2022-09-23T03:34:34.878Z,7.42
2022-09-23T03:37:08.664Z,7.44
2022-09-23T03:39:41.118Z,7.41
2022-09-23T03:42:16.719Z,7.33
2022-09-23T03:44:45.910Z,7.26
2022-09-23T03:47:15.148Z,7.30
2022-09-23T03:49:48.307Z,7.38
2022-09-23T03:52:17.187Z,7.35
2022-09-23T03:54:52.970Z,7.31
2022-09-23T03:57:22.480Z,7.29
2022-09-23T03:59:50.515Z,7.33
2022-09-23T04:02:19.355Z,7.22
2022-09-23T04:04:48.886Z,7.26
2022-09-23T04:07:17.305Z,7.30
2022-09-23T04:09:45.847Z,7.20
2022-09-23T04:12:16.110Z,7.27
2022-09-23T04:14:44.809Z,7.26
2022-09-23T04:17:14.172Z,7.30
2022-09-23T04:19:42.526Z,7.33
2022-09-23T04:22:12.024Z,7.19
2022-09-23T04:24:40.308Z,7.29
2022-09-23T04:27:08.481Z,7.37
2022-09-23T04:29:36.367Z,7.33
2022-09-23T04:32:04.211Z,7.30
2022-09-23T04:34:32.344Z,7.35
2022-09-23T04:37:00.148Z,7.30
2022-09-23T04:39:29.447Z,7.32
2022-09-23T04:41:57.693Z,7.27
2022-09-23T04:44:28.076Z,7.22
2022-09-23T04:46:56.260Z,7.26
2022-09-23T04:49:24.595Z,7.23
2022-09-23T04:51:52.618Z,7.32
2022-09-23T04:54:20.448Z,7.30
2022-09-23T04:56:49.978Z,7.28
2022-09-23T04:59:17.916Z,7.23
2022-09-23T05:01:45.855Z,7.24
2022-09-23T05:04:14.825Z,7.31
2022-09-23T05:06:43.906Z,7.31
2022-09-23T05:09:16.125Z,7.36
2022-09-23T05:11:44.976Z,7.23
2022-09-23T05:14:14.276Z,7.25
2022-09-23T05:16:42.322Z,7.31
2022-09-23T05:19:11.707Z,7.29
2022-09-23T05:21:39.528Z,7.31
2022-09-23T05:24:07.680Z,7.40
2022-09-23T05:26:35.773Z,7.41
2022-09-23T05:29:03.840Z,7.40
2022-09-23T05:31:33.286Z,7.44
2022-09-23T05:34:03.881Z,7.35
2022-09-23T05:36:37.869Z,7.43
2022-09-23T05:39:08.053Z,7.33
2022-09-23T05:41:36.470Z,7.43
2022-09-23T05:44:04.418Z,7.45
2022-09-23T05:46:34.269Z,7.49
2022-09-23T05:49:03.738Z,7.53
2022-09-23T05:51:33.350Z,7.54
2022-09-23T05:54:03.953Z,7.42
2022-09-23T05:56:33.054Z,7.50
2022-09-23T05:59:02.495Z,7.38
2022-09-23T06:01:33.883Z,7.38
2022-09-23T06:04:05.874Z,7.25
2022-09-23T06:06:36.429Z,7.51
2022-09-23T06:09:05.899Z,7.51
2022-09-23T06:11:36.953Z,7.59
2022-09-23T06:14:05.970Z,7.52
2022-09-23T06:16:35.794Z,7.50
2022-09-23T06:19:07.000Z,7.42
2022-09-23T06:21:37.989Z,7.47
2022-09-23T06:24:08.338Z,7.31
2022-09-23T06:26:37.742Z,7.49
2022-09-23T06:29:11.439Z,7.49
2022-09-23T06:31:43.193Z,7.53
2022-09-23T06:34:15.050Z,7.36
2022-09-23T06:36:46.386Z,7.45
2022-09-23T06:39:15.309Z,7.56
2022-09-23T06:41:43.979Z,7.46
2022-09-23T06:44:12.510Z,7.38
2022-09-23T06:46:40.432Z,7.58
2022-09-23T06:49:08.272Z,7.59
2022-09-23T06:51:38.016Z,7.69
2022-09-23T06:54:06.241Z,7.65
2022-09-23T06:56:38.704Z,7.77
2022-09-23T06:59:10.518Z,7.89
2022-09-23T07:01:39.003Z,7.92
2022-09-23T07:04:07.661Z,7.82
2022-09-23T07:06:37.542Z,7.87
2022-09-23T07:09:07.081Z,7.98
2022-09-23T07:11:34.938Z,8.09
2022-09-23T07:14:03.495Z,8.01
2022-09-23T07:16:32.986Z,8.23
2022-09-23T07:19:00.792Z,8.24
2022-09-23T07:21:29.205Z,8.26
2022-09-23T07:23:58.877Z,8.26
2022-09-23T07:26:27.017Z,8.31
2022-09-23T07:28:56.547Z,8.52
2022-09-23T07:31:37.569Z,8.57
2022-09-23T07:34:07.957Z,8.66
2022-09-23T07:36:37.767Z,8.81
2022-09-23T07:39:07.660Z,8.64
2022-09-23T07:41:36.541Z,8.79
2022-09-23T07:44:06.036Z,8.89
2022-09-23T07:46:36.983Z,8.96
2022-09-23T07:49:06.523Z,9.06
2022-09-23T07:51:36.809Z,8.77
2022-09-23T07:54:08.779Z,8.95
2022-09-23T07:56:38.107Z,8.94
2022-09-23T07:59:09.055Z,9.11
2022-09-23T08:01:39.001Z,9.20
2022-09-23T08:04:09.511Z,9.27
2022-09-23T08:06:42.265Z,9.35
2022-09-23T08:09:12.867Z,9.47
2022-09-23T08:11:41.941Z,9.44
2022-09-23T08:14:10.744Z,9.29
2022-09-23T08:16:39.801Z,9.42
2022-09-23T08:19:08.067Z,9.58
2022-09-23T08:21:39.484Z,9.72
2022-09-23T08:24:09.828Z,9.61
2022-09-23T08:26:39.032Z,9.37
2022-09-23T08:29:09.787Z,9.54
2022-09-23T08:31:38.408Z,9.79
2022-09-23T08:34:06.713Z,9.85
2022-09-23T08:36:35.717Z,10.06
2022-09-23T08:39:04.417Z,10.54
2022-09-23T08:41:41.519Z,10.91
2022-09-23T08:44:14.802Z,11.06
2022-09-23T08:46:47.622Z,10.95
2022-09-23T08:49:25.314Z,10.76
2022-09-23T08:51:55.977Z,10.24
2022-09-23T08:54:29.256Z,10.41
2022-09-23T08:57:01.231Z,10.62
2022-09-23T08:59:38.858Z,10.82
2022-09-23T09:02:14.556Z,11.18
2022-09-23T09:04:45.475Z,11.44
2022-09-23T09:07:35.592Z,11.84
2022-09-23T09:10:11.140Z,11.51
2022-09-23T09:12:44.673Z,11.74
2022-09-23T09:15:16.317Z,11.52
2022-09-23T09:17:54.886Z,11.86
2022-09-23T09:20:34.267Z,11.82
2022-09-23T09:23:13.737Z,11.62
2022-09-23T09:25:45.348Z,11.33
2022-09-23T09:28:26.674Z,11.20
2022-09-23T09:30:58.022Z,11.69
2022-09-23T09:33:33.216Z,12.05
2022-09-23T09:36:19.634Z,12.13
2022-09-23T09:38:47.934Z,11.91
2022-09-23T09:41:17.814Z,11.54
2022-09-23T09:43:52.454Z,11.50
2022-09-23T09:46:34.990Z,11.93
2022-09-23T09:49:06.564Z,11.83
2022-09-23T09:51:35.524Z,12.09
2022-09-23T09:54:18.059Z,12.10
2022-09-23T09:59:23.429Z,12.82
2022-09-23T10:02:11.777Z,12.95
2022-09-23T10:04:40.069Z,13.42
2022-09-23T10:07:13.038Z,13.52
2022-09-23T10:09:48.381Z,13.67
2022-09-23T10:12:19.338Z,14.13
2022-09-23T10:14:51.399Z,13.70
2022-09-23T10:17:22.768Z,14.37
2022-09-23T10:19:58.062Z,13.54
2022-09-23T10:22:29.898Z,13.58
2022-09-23T10:25:03.313Z,13.19
2022-09-23T10:27:34.521Z,12.95
2022-09-23T10:30:06.474Z,13.70
2022-09-23T10:32:39.929Z,14.50
2022-09-23T10:35:16.421Z,14.59
2022-09-23T10:37:48.363Z,14.67
2022-09-23T10:40:37.293Z,15.31
2022-09-23T10:43:46.197Z,15.21
2022-09-23T10:46:39.715Z,14.52
2022-09-23T10:49:58.751Z,14.44
2022-09-23T10:52:43.688Z,13.83
2022-09-23T10:55:26.447Z,13.89
2022-09-23T10:58:09.276Z,13.93
2022-09-23T11:00:46.314Z,13.87
2022-09-23T11:03:54.067Z,13.63
2022-09-23T11:06:31.855Z,13.33
2022-09-23T11:09:26.435Z,13.34
2022-09-23T11:12:09.988Z,13.42
2022-09-23T11:15:00.519Z,14.32
2022-09-23T11:17:54.539Z,14.84
2022-09-23T11:20:40.568Z,15.38
2022-09-23T11:23:37.035Z,14.86
2022-09-23T11:26:17.078Z,14.34
2022-09-23T11:29:04.400Z,14.33
2022-09-23T11:31:39.555Z,14.12
2022-09-23T11:34:34.144Z,13.80
2022-09-23T11:37:08.891Z,13.98
2022-09-23T11:39:43.474Z,13.87
2022-09-23T11:42:18.427Z,13.94
2022-09-23T11:44:53.658Z,13.66
2022-09-23T11:47:26.586Z,13.67
2022-09-23T11:50:01.116Z,13.75
2022-09-23T11:52:34.613Z,13.54
2022-09-23T11:55:20.082Z,13.26
2022-09-23T11:57:51.998Z,13.30
2022-09-23T12:00:23.134Z,13.33
2022-09-23T12:03:05.458Z,13.54
2022-09-23T12:05:39.532Z,13.68
2022-09-23T12:08:18.663Z,13.95
2022-09-23T12:10:54.435Z,14.82
2022-09-23T12:13:27.578Z,15.25
2022-09-23T12:16:14.711Z,15.33
2022-09-23T12:19:04.103Z,14.71
2022-09-23T12:21:51.861Z,14.25
2022-09-23T12:24:35.550Z,14.30
2022-09-23T12:27:10.951Z,14.09
2022-09-23T12:29:41.738Z,13.99
2022-09-23T12:32:18.618Z,13.70
2022-09-23T12:34:51.988Z,13.62
2022-09-23T12:37:27.507Z,13.64
2022-09-23T12:40:00.912Z,13.81
2022-09-23T12:42:31.308Z,13.85
2022-09-23T12:45:19.870Z,13.82
2022-09-23T12:47:47.973Z,13.74
2022-09-23T12:50:51.928Z,13.61
2022-09-23T12:54:23.747Z,13.44
2022-09-23T12:57:11.732Z,13.20
2022-09-23T12:59:58.596Z,13.10
2022-09-23T13:02:34.596Z,12.97
2022-09-23T13:05:28.250Z,13.12
2022-09-23T13:08:01.168Z,13.23
2022-09-23T13:10:33.006Z,12.84
2022-09-23T13:13:03.360Z,12.91
2022-09-23T13:15:34.925Z,12.99
2022-09-23T13:18:25.117Z,13.02
2022-09-23T13:20:54.903Z,13.10
2022-09-23T13:23:24.750Z,13.17
2022-09-23T13:25:55.289Z,13.20
2022-09-23T13:28:36.861Z,13.28
2022-09-23T13:31:07.155Z,13.31
2022-09-23T13:33:43.220Z,13.42
2022-09-23T13:36:15.030Z,13.56
2022-09-23T13:38:43.669Z,13.61
2022-09-23T13:41:16.197Z,13.74
2022-09-23T13:43:49.066Z,13.84
2022-09-23T13:46:19.247Z,13.81
2022-09-23T13:48:49.870Z,13.62
2022-09-23T13:51:24.635Z,13.78
2022-09-23T13:53:55.282Z,13.89
2022-09-23T13:56:25.270Z,13.97
2022-09-23T13:58:55.818Z,13.97
2022-09-23T14:01:30.857Z,13.96
2022-09-23T14:03:59.489Z,13.85
2022-09-23T14:06:31.641Z,13.65
2022-09-23T14:09:03.190Z,13.78
2022-09-23T14:11:35.168Z,13.80
2022-09-23T14:14:07.134Z,13.85
2022-09-23T14:16:39.291Z,13.98
2022-09-23T14:19:08.000Z,14.13
2022-09-23T14:21:37.634Z,14.29
2022-09-23T14:24:15.654Z,14.46
2022-09-23T14:26:47.801Z,14.68
2022-09-23T14:29:19.247Z,14.88
2022-09-23T14:31:56.648Z,15.03
2022-09-23T14:34:46.958Z,15.17
2022-09-23T14:37:40.886Z,15.26
2022-09-23T14:40:13.857Z,15.27
2022-09-23T14:42:44.512Z,15.43
2022-09-23T14:45:18.545Z,15.60
2022-09-23T14:47:50.410Z,15.55
2022-09-23T14:50:39.289Z,15.36
2022-09-23T14:53:33.570Z,15.39
2022-09-23T14:56:22.030Z,15.50
2022-09-23T14:58:53.472Z,15.88
2022-09-23T15:01:41.083Z,16.11
2022-09-23T15:04:18.254Z,16.46
2022-09-23T15:06:51.171Z,16.61
2022-09-23T15:09:24.607Z,16.80
2022-09-23T15:11:54.862Z,16.79
2022-09-23T15:14:39.818Z,16.91
2022-09-23T15:17:32.450Z,17.11
2022-09-23T15:20:03.349Z,17.16
2022-09-23T15:22:31.334Z,17.24
2022-09-23T15:25:17.369Z,17.45
2022-09-23T15:27:57.642Z,17.63
2022-09-23T15:30:26.050Z,17.61
2022-09-23T15:32:55.602Z,17.88
2022-09-23T15:35:26.610Z,18.18
2022-09-23T15:37:58.160Z,18.26
2022-09-23T15:40:28.123Z,17.83
2022-09-23T15:42:58.641Z,16.95
2022-09-23T15:45:33.678Z,16.21
2022-09-23T15:48:08.284Z,16.05
2022-09-23T15:50:37.409Z,15.76
2022-09-23T15:53:06.176Z,15.37
2022-09-23T15:55:34.309Z,15.14
2022-09-23T15:58:02.382Z,14.87
2022-09-23T16:00:30.595Z,14.66
2022-09-23T16:02:58.430Z,14.58
2022-09-23T16:05:34.106Z,14.43
2022-09-23T16:08:08.485Z,14.25
2022-09-23T16:10:37.392Z,14.09
2022-09-23T16:13:08.835Z,13.95
2022-09-23T16:15:39.010Z,13.81
2022-09-23T16:18:07.969Z,13.68
2022-09-23T16:20:38.652Z,13.59
2022-09-23T16:23:08.605Z,13.45
2022-09-23T16:25:37.953Z,13.34
2022-09-23T16:28:05.826Z,13.25
2022-09-23T16:30:35.100Z,13.13
2022-09-23T16:33:02.965Z,12.98
2022-09-23T16:35:41.733Z,12.85
2022-09-23T16:38:09.910Z,12.74
2022-09-23T16:40:37.762Z,12.68
2022-09-23T16:43:06.066Z,12.57
2022-09-23T16:45:34.670Z,12.46
2022-09-23T16:48:03.075Z,12.34
2022-09-23T16:50:31.926Z,12.19
2022-09-23T16:53:01.522Z,12.10
2022-09-23T16:55:29.562Z,12.00
2022-09-23T16:57:57.375Z,11.98
2022-09-23T17:00:43.038Z,11.92
2022-09-23T17:03:30.862Z,11.85
2022-09-23T17:06:00.689Z,11.72
2022-09-23T17:08:32.383Z,11.63
2022-09-23T17:11:01.760Z,11.55
2022-09-23T17:13:31.083Z,11.49
2022-09-23T17:15:59.298Z,11.29
2022-09-23T17:18:27.951Z,11.32
2022-09-23T17:21:00.321Z,11.21
2022-09-23T17:23:28.593Z,11.14
2022-09-23T17:25:57.912Z,11.05
2022-09-23T17:28:26.320Z,10.92
2022-09-23T17:30:58.832Z,10.78
2022-09-23T17:33:26.888Z,10.63
2022-09-23T17:35:55.081Z,10.39
2022-09-23T17:38:27.969Z,10.13
2022-09-23T17:41:01.146Z,9.95
2022-09-23T17:43:31.576Z,9.83
2022-09-23T17:46:05.199Z,9.69
2022-09-23T17:48:36.059Z,9.58
2022-09-23T17:51:05.668Z,9.65
2022-09-23T17:53:35.954Z,9.51
2022-09-23T17:56:07.740Z,9.55
2022-09-23T17:58:37.518Z,9.49
2022-09-23T18:01:06.485Z,9.26
2022-09-23T18:03:34.409Z,9.20
2022-09-23T18:06:10.157Z,8.94
2022-09-23T18:08:39.262Z,8.83
2022-09-23T18:11:19.435Z,8.72
2022-09-23T18:13:52.446Z,8.69
2022-09-23T18:16:22.422Z,8.64
2022-09-23T18:18:51.938Z,8.52
2022-09-23T18:21:20.514Z,8.51
2022-09-23T18:23:48.704Z,8.45
2022-09-23T18:26:19.563Z,8.38
2022-09-23T18:28:48.060Z,8.35
2022-09-23T18:31:16.809Z,8.25
2022-09-23T18:33:49.277Z,8.18
2022-09-23T18:36:17.235Z,8.26
2022-09-23T18:38:45.836Z,7.98
2022-09-23T18:41:14.641Z,7.88
2022-09-23T18:43:48.336Z,7.74
2022-09-23T18:46:18.584Z,7.71
2022-09-23T18:49:04.471Z,7.46
2022-09-23T18:51:34.608Z,7.37
2022-09-23T18:54:05.317Z,7.26
2022-09-23T18:56:37.227Z,7.14
2022-09-23T18:59:08.515Z,6.96
2022-09-23T19:01:36.782Z,6.96
2022-09-23T19:04:05.089Z,6.93
2022-09-23T19:06:34.679Z,6.83
2022-09-23T19:09:02.995Z,6.74
2022-09-23T19:11:31.848Z,6.57
2022-09-23T19:14:02.104Z,6.67
2022-09-23T19:16:32.210Z,6.65
2022-09-23T19:19:00.408Z,6.51
2022-09-23T19:21:29.686Z,6.35
2022-09-23T19:24:03.344Z,6.38
2022-09-23T19:26:34.118Z,6.33
2022-09-23T19:29:04.256Z,6.34
2022-09-23T19:31:35.865Z,6.31
2022-09-23T19:34:10.046Z,6.29
2022-09-23T19:36:39.775Z,6.30
2022-09-23T19:39:09.937Z,6.24
2022-09-23T19:41:38.026Z,6.07
2022-09-23T19:44:07.649Z,6.21
2022-09-23T19:46:39.529Z,6.24
2022-09-23T19:49:08.676Z,6.19
2022-09-23T19:51:36.898Z,6.19
2022-09-23T19:54:07.133Z,6.17
2022-09-23T19:56:35.722Z,6.18
2022-09-23T19:59:05.780Z,6.06
2022-09-23T20:01:35.090Z,6.07
2022-09-23T20:04:05.570Z,6.02
2022-09-23T20:06:37.930Z,5.93
2022-09-23T20:09:07.022Z,5.86
2022-09-23T20:11:35.238Z,5.85
2022-09-23T20:14:05.792Z,5.87
2022-09-23T20:16:38.530Z,5.77
2022-09-23T20:19:08.030Z,5.76
2022-09-23T20:21:36.374Z,5.73
2022-09-23T20:24:06.873Z,5.65
2022-09-23T20:26:52.815Z,5.68
2022-09-23T20:29:21.529Z,5.63
2022-09-23T20:31:49.820Z,5.61
2022-09-23T20:34:19.480Z,5.67
2022-09-23T20:36:47.500Z,5.63
2022-09-23T20:39:15.870Z,5.61
2022-09-23T20:41:43.684Z,5.64
2022-09-23T20:44:13.038Z,5.64
2022-09-23T20:46:46.978Z,5.61
2022-09-23T20:49:17.674Z,5.61
2022-09-23T20:51:48.703Z,5.57
2022-09-23T20:54:18.909Z,5.57
2022-09-23T20:56:47.040Z,5.67
2022-09-23T20:59:17.489Z,5.60
2022-09-23T21:01:45.478Z,5.59
2022-09-23T21:04:13.773Z,5.52
2022-09-23T21:06:41.730Z,5.38
2022-09-23T21:09:10.998Z,5.31
2022-09-23T21:11:39.399Z,5.22
2022-09-23T21:14:07.531Z,5.24
2022-09-23T21:16:35.461Z,5.25
2022-09-23T21:19:07.956Z,5.24
2022-09-23T21:21:36.670Z,5.17
2022-09-23T21:24:31.317Z,5.21
2022-09-23T21:26:54.227Z,5.13
2022-09-23T21:29:22.982Z,5.11
2022-09-23T21:31:50.866Z,5.12
2022-09-23T21:34:19.672Z,5.20
2022-09-23T21:36:48.769Z,5.03
2022-09-23T21:39:16.628Z,4.99
2022-09-23T21:41:44.836Z,4.87
2022-09-23T21:44:14.372Z,4.91
2022-09-23T21:46:42.563Z,4.90
2022-09-23T21:49:10.772Z,4.92
2022-09-23T21:51:41.463Z,5.03
2022-09-23T21:54:14.431Z,5.06
2022-09-23T21:56:43.866Z,5.08
2022-09-23T21:59:11.925Z,5.05
2022-09-23T22:01:43.601Z,5.09
2022-09-23T22:04:15.581Z,5.15
2022-09-23T22:06:43.933Z,4.95
2022-09-23T22:09:14.212Z,4.96
2022-09-23T22:12:00.673Z,4.93
2022-09-23T22:14:30.440Z,4.86
2022-09-23T22:17:02.589Z,4.65
2022-09-23T22:19:34.849Z,4.80
2022-09-23T22:22:06.669Z,4.73
2022-09-23T22:24:34.808Z,4.68
2022-09-23T22:27:02.650Z,4.73
2022-09-23T22:29:48.349Z,4.85
2022-09-23T22:32:35.443Z,4.91
2022-09-23T22:35:03.558Z,4.90
2022-09-23T22:37:34.110Z,4.84
2022-09-23T22:40:02.694Z,4.85
2022-09-23T22:42:30.947Z,4.65
2022-09-23T22:44:58.973Z,4.87
2022-09-23T22:47:28.361Z,4.85
2022-09-23T22:49:56.276Z,4.83
2022-09-23T22:52:25.153Z,4.82
2022-09-23T22:54:53.453Z,4.62
2022-09-23T22:57:21.392Z,4.71
2022-09-23T22:59:49.509Z,4.58
2022-09-23T23:02:18.095Z,4.47
2022-09-23T23:04:48.475Z,4.33
2022-09-23T23:07:20.367Z,4.24
2022-09-23T23:09:48.671Z,4.20
2022-09-23T23:12:16.845Z,4.52
2022-09-23T23:14:45.210Z,4.66
2022-09-23T23:17:13.218Z,4.60
2022-09-23T23:19:41.162Z,4.67
2022-09-23T23:22:10.623Z,4.50
2022-09-23T23:24:38.533Z,4.74
2022-09-23T23:27:06.333Z,4.63
2022-09-23T23:29:34.414Z,4.62
2022-09-23T23:32:02.908Z,4.48
2022-09-23T23:34:30.678Z,4.33
2022-09-23T23:36:58.655Z,4.30
2022-09-23T23:39:28.056Z,4.25
2022-09-23T23:41:57.454Z,4.17
2022-09-23T23:44:26.831Z,4.13
2022-09-23T23:46:55.638Z,4.09
2022-09-23T23:49:25.615Z,4.14
2022-09-23T23:51:53.689Z,4.13
2022-09-23T23:54:21.705Z,4.09
2022-09-23T23:56:50.984Z,4.10
2022-09-23T23:59:20.142Z,4.04
